Bookmark and Share
Track history (hours):
 

Burin Sea

Last reported at 2014-Apr-14 21:31 UTC. Time now 2014-Apr-23 19:04 UTC.
Position N 47°32' W 052°32'.
Warning: this ship's position is 8 days out of date.

Length 82 m; draft 5.2 m.

Type: Tug. MMSI: 316300000.

NotesDate/timePositionNaut miles runAvg speedWind from/ knotsBaromVisibWave heightAir tempDewpointWater temp
2014-Apr-14 21:31N 47°32' W 052°32'7 7.0
2014-Apr-14 20:30N 47°34' W 052°42'0 0.0
2014-Apr-14 19:33N 47°34' W 052°42'0 0.0
2014-Apr-14 18:31N 47°34' W 052°42'0 0.0
2014-Apr-14 17:30N 47°34' W 052°42'0 0.0
2014-Apr-14 16:30N 47°34' W 052°42'0 0.0
2014-Apr-14 14:31N 47°34' W 052°42'0 0.0
2014-Apr-14 13:33N 47°34' W 052°42'0 0.0
2014-Apr-14 11:33N 47°34' W 052°42'0 0.0
2014-Apr-14 10:31N 47°34' W 052°42'0 0.0
2014-Apr-14 08:33N 47°34' W 052°42'0 0.0
2014-Apr-14 07:32N 47°34' W 052°42'0 0.0
2014-Apr-14 06:31N 47°34' W 052°42'0 0.0
2014-Apr-14 05:30N 47°34' W 052°42'0 0.0
2014-Apr-13 22:31N 47°34' W 052°42'0 0.0
2014-Apr-13 21:30N 47°34' W 052°42'0 0.0
2014-Apr-13 20:30N 47°34' W 052°42'0 0.0
2014-Apr-13 19:30N 47°34' W 052°42'0 0.0
2014-Apr-13 18:30N 47°34' W 052°42'0 0.0
2014-Apr-13 17:29N 47°34' W 052°42'0 0.0
2014-Apr-13 16:32N 47°34' W 052°42'0 0.0
2014-Apr-13 15:32N 47°34' W 052°42'0 0.0
2014-Apr-13 14:31N 47°34' W 052°42'0 0.0
2014-Apr-13 13:30N 47°34' W 052°42'0 0.0
2014-Apr-13 12:29N 47°34' W 052°42'0 0.0
2014-Apr-13 11:33N 47°34' W 052°42'0 0.0
2014-Apr-13 10:32N 47°34' W 052°42'0 0.0
2014-Apr-13 09:22N 47°34' W 052°42'0 0.0
2014-Apr-13 08:32N 47°34' W 052°42'0 0.0
2014-Apr-13 07:31N 47°34' W 052°42'0 0.0
2014-Apr-13 06:31N 47°34' W 052°42'0 0.0
2014-Apr-13 05:31N 47°34' W 052°42'0 0.0
2014-Apr-13 04:30N 47°34' W 052°42'0 0.0
2014-Apr-13 03:30N 47°34' W 052°42'0 0.0
2014-Apr-13 02:29N 47°34' W 052°42'0 0.0
2014-Apr-13 01:29N 47°34' W 052°42'0 0.0
2014-Apr-13 00:29N 47°34' W 052°42'0 0.0
2014-Apr-12 23:29N 47°34' W 052°42'0 0.0
2014-Apr-12 22:33N 47°34' W 052°42'0 0.0
2014-Apr-12 21:32N 47°34' W 052°42'0 0.0
2014-Apr-12 20:32N 47°34' W 052°42'0 0.0
2014-Apr-12 19:31N 47°34' W 052°42'0 0.0
2014-Apr-12 18:31N 47°34' W 052°42'2 2.4
2014-Apr-12 17:31N 47°33' W 052°39'0 0.2
2014-Apr-12 16:30N 47°33' W 052°39'0 0.2
2014-Apr-12 15:30N 47°33' W 052°39'0 0.4
2014-Apr-12 14:33N 47°33' W 052°39'0 0.3
2014-Apr-12 13:33N 47°33' W 052°39'0 0.3
2014-Apr-12 12:30N 47°33' W 052°40'2 1.9
2014-Apr-12 11:30N 47°34' W 052°42'0 0.0
2014-Apr-12 10:25N 47°34' W 052°42'2 2.3
2014-Apr-12 09:30N 47°34' W 052°39'1110.6
2014-Apr-12 08:29N 47°30' W 052°24'  
2014-Apr-08 22:32N 47°29' W 052°19'1413.2
2014-Apr-08 21:29N 47°34' W 052°39'2 2.4
2014-Apr-08 20:30N 47°34' W 052°42'0 0.0
2014-Apr-08 19:28N 47°34' W 052°42'0 0.0
2014-Apr-08 18:31N 47°34' W 052°42'0 0.0
2014-Apr-08 17:32N 47°34' W 052°42'0 0.0
2014-Apr-08 16:27N 47°34' W 052°42'0 0.0
2014-Apr-08 15:23N 47°34' W 052°42'0 0.4
2014-Apr-08 14:29N 47°34' W 052°42'0 0.0
2014-Apr-08 13:30N 47°34' W 052°42'0 0.0
2014-Apr-08 12:30N 47°34' W 052°42'8 8.2
2014-Apr-08 11:30N 47°32' W 052°30'  

Dump ship's entire track history

sailing weather and tide predictions

Burin Sea — VCXN — position and weather